Time;durP1;ratioP1;P1;durP2;ratioP2;P2;SDS_P1;SDS_P2;PMS_P1;PMS_P2;Temp;Humidity;BMP_temperature;BMP_pressure;BME280_temperature;BME280_humidity;BME280_pressure;Samples;Min_cycle;Max_cycle;Signal;HPM_P1;HPM_P2
2021/03/07 00:01:47;;;;;;;5.53;2.90;;;5.50;99.90;;;;;;4995633;28;20253;-72
2021/03/07 00:04:13;;;;;;;5.95;3.45;;;5.50;99.90;;;;;;4995709;28;20030;-72
2021/03/07 00:06:38;;;;;;;4.45;2.88;;;5.50;99.90;;;;;;4990226;28;20518;-71
2021/03/07 00:09:04;;;;;;;6.95;3.28;;;5.50;99.90;;;;;;4996575;28;20061;-72
2021/03/07 00:11:29;;;;;;;4.07;2.97;;;5.50;99.90;;;;;;4995419;28;20317;-72
2021/03/07 00:13:55;;;;;;;8.40;3.00;;;5.40;99.90;;;;;;4991450;28;20034;-72
2021/03/07 00:16:20;;;;;;;4.93;3.25;;;5.50;99.90;;;;;;4991912;28;20061;-72
2021/03/07 00:18:46;;;;;;;7.28;3.38;;;5.50;99.90;;;;;;4990546;28;20658;-72
2021/03/07 00:21:11;;;;;;;6.22;3.25;;;5.50;99.90;;;;;;4991564;28;20078;-72
2021/03/07 00:23:37;;;;;;;6.15;3.45;;;5.40;99.90;;;;;;4991698;28;20023;-72
2021/03/07 00:26:03;;;;;;;7.35;3.47;;;5.40;99.90;;;;;;4990242;28;20090;-71
2021/03/07 00:28:28;;;;;;;4.95;2.70;;;5.40;99.90;;;;;;4996573;28;20065;-72
2021/03/07 00:30:54;;;;;;;8.68;2.60;;;5.40;99.90;;;;;;4994222;28;20034;-71
2021/03/07 00:33:19;;;;;;;5.53;2.65;;;5.40;99.90;;;;;;4990514;28;20379;-72
2021/03/07 00:35:44;;;;;;;6.10;2.58;;;5.30;99.90;;;;;;4992271;28;20033;-72
2021/03/07 00:38:10;;;;;;;7.78;2.45;;;5.30;99.90;;;;;;4983303;28;20038;-72
2021/03/07 00:40:35;;;;;;;5.82;2.70;;;5.30;99.90;;;;;;4990732;28;20408;-72
2021/03/07 00:43:01;;;;;;;4.22;2.50;;;5.30;99.90;;;;;;4992740;28;20231;-72
2021/03/07 00:45:26;;;;;;;8.15;2.53;;;5.20;99.90;;;;;;4991051;28;20121;-71
2021/03/07 00:47:52;;;;;;;4.40;2.78;;;5.20;99.90;;;;;;4995425;28;20026;-72
2021/03/07 00:50:20;;;;;;;4.20;2.50;;;5.20;99.90;;;;;;4992799;28;20142;-72
2021/03/07 00:52:46;;;;;;;5.47;2.60;;;5.20;99.90;;;;;;4991207;28;20101;-72
2021/03/07 00:55:11;;;;;;;7.43;2.72;;;5.20;99.90;;;;;;4992872;28;20112;-72
2021/03/07 00:57:37;;;;;;;9.43;2.80;;;5.20;99.90;;;;;;4991077;28;20035;-72
2021/03/07 01:00:14;;;;;;;7.65;2.78;;;5.20;99.90;;;;;;4994411;28;20130;-72
2021/03/07 01:02:40;;;;;;;7.30;2.88;;;5.20;99.90;;;;;;4995033;28;20058;-72
2021/03/07 01:05:06;;;;;;;6.80;3.13;;;5.20;99.90;;;;;;4990911;28;20061;-71
2021/03/07 01:07:32;;;;;;;4.15;2.90;;;5.20;99.90;;;;;;4990342;28;20389;-72
2021/03/07 01:09:58;;;;;;;4.07;2.75;;;5.20;99.90;;;;;;4990264;28;20034;-72
2021/03/07 01:12:23;;;;;;;8.05;3.20;;;5.20;99.90;;;;;;4988910;28;20100;-71
2021/03/07 01:14:49;;;;;;;7.80;3.08;;;5.20;99.90;;;;;;4990041;28;20042;-72
2021/03/07 01:17:15;;;;;;;6.05;3.17;;;5.10;99.90;;;;;;4992818;28;21970;-72
2021/03/07 01:19:40;;;;;;;7.15;3.15;;;5.10;99.90;;;;;;4993733;28;20164;-72
2021/03/07 01:22:06;;;;;;;4.70;3.03;;;5.00;99.90;;;;;;4992675;28;20382;-72
2021/03/07 01:24:31;;;;;;;4.07;2.78;;;4.90;99.90;;;;;;5002121;28;20026;-72
2021/03/07 01:26:57;;;;;;;5.40;2.60;;;5.00;99.90;;;;;;4999296;28;20026;-72
2021/03/07 01:29:22;;;;;;;8.18;2.80;;;4.90;99.90;;;;;;4991054;28;20078;-72
2021/03/07 01:31:48;;;;;;;4.03;2.70;;;5.00;99.90;;;;;;4999082;28;20488;-72
2021/03/07 01:34:13;;;;;;;7.68;3.10;;;5.00;99.90;;;;;;4995035;28;20030;-72
2021/03/07 01:36:39;;;;;;;5.43;3.03;;;4.90;99.90;;;;;;4989757;28;20022;-72
2021/03/07 01:39:05;;;;;;;7.57;3.20;;;4.90;99.90;;;;;;4989546;28;20027;-71
2021/03/07 01:41:31;;;;;;;6.82;2.70;;;4.90;99.90;;;;;;4972494;28;20817;-72
2021/03/07 01:43:56;;;;;;;7.97;2.78;;;5.00;99.90;;;;;;4989282;28;20046;-72
2021/03/07 01:46:22;;;;;;;4.43;2.83;;;5.00;99.90;;;;;;4990226;28;20042;-72
2021/03/07 01:48:49;;;;;;;3.78;2.80;;;5.00;99.90;;;;;;4992246;28;20563;-72
2021/03/07 01:51:15;;;;;;;6.25;3.00;;;4.90;99.90;;;;;;4989793;28;20038;-72
2021/03/07 01:53:41;;;;;;;7.32;2.90;;;4.90;99.90;;;;;;4989965;28;20096;-72
2021/03/07 01:56:07;;;;;;;5.72;2.97;;;4.90;99.90;;;;;;4996993;28;20473;-72
2021/03/07 01:58:35;;;;;;;5.45;2.53;;;4.80;99.90;;;;;;4992479;28;20030;-72
2021/03/07 02:01:01;;;;;;;7.28;3.13;;;4.90;99.90;;;;;;4998720;28;20041;-72
2021/03/07 02:03:28;;;;;;;3.97;2.58;;;4.90;99.90;;;;;;4997538;28;20038;-72
2021/03/07 02:05:54;;;;;;;6.93;3.00;;;4.80;99.90;;;;;;4989530;28;20030;-72
2021/03/07 02:08:20;;;;;;;4.88;2.72;;;4.80;99.90;;;;;;4987938;28;20034;-73
2021/03/07 02:10:51;;;;;;;3.85;2.53;;;4.80;99.90;;;;;;4991022;28;20121;-72
2021/03/07 02:13:31;;;;;;;4.57;2.47;;;4.70;99.90;;;;;;4997324;28;20216;-72
2021/03/07 02:16:21;;;;;;;5.53;2.28;;;4.60;99.90;;;;;;4992649;28;20073;-72
2021/03/07 02:18:50;;;;;;;5.28;2.10;;;4.60;99.90;;;;;;4986078;28;20092;-72
2021/03/07 02:21:24;;;;;;;3.47;2.25;;;4.60;99.90;;;;;;4992714;28;20060;-73
2021/03/07 02:24:00;;;;;;;4.80;2.55;;;4.60;99.90;;;;;;4998404;28;20073;-72
2021/03/07 02:26:26;;;;;;;2.88;1.90;;;4.60;99.90;;;;;;4989936;28;20037;-72
2021/03/07 02:28:51;;;;;;;4.97;2.20;;;4.60;99.90;;;;;;4991828;28;20038;-72
2021/03/07 02:31:21;;;;;;;4.40;2.15;;;4.70;99.90;;;;;;4993797;28;20034;-72
2021/03/07 02:33:50;;;;;;;4.45;2.47;;;4.60;99.90;;;;;;4997928;28;20034;-72
2021/03/07 02:36:22;;;;;;;6.72;2.08;;;4.70;99.90;;;;;;4990291;28;20468;-72
2021/03/07 02:38:48;;;;;;;4.82;2.53;;;4.70;99.90;;;;;;4990884;28;20076;-72
2021/03/07 02:41:16;;;;;;;3.75;2.40;;;4.70;99.90;;;;;;4988907;28;20424;-73
2021/03/07 02:43:49;;;;;;;4.60;2.42;;;4.70;99.90;;;;;;4988295;28;20045;-72
2021/03/07 02:46:16;;;;;;;4.68;2.35;;;4.60;99.90;;;;;;4996863;28;20022;-72
2021/03/07 02:48:46;;;;;;;5.85;1.58;;;4.60;99.90;;;;;;4996850;28;20052;-72
2021/03/07 02:51:12;;;;;;;3.78;2.00;;;4.50;99.90;;;;;;4995881;28;20032;-72
2021/03/07 02:53:39;;;;;;;2.33;1.65;;;4.50;99.90;;;;;;4988333;28;20038;-72
2021/03/07 02:56:14;;;;;;;3.65;1.63;;;4.40;99.90;;;;;;4992365;28;20026;-72
2021/03/07 02:58:41;;;;;;;6.25;1.55;;;4.30;99.90;;;;;;4987889;28;20170;-72
2021/03/07 03:01:10;;;;;;;3.25;1.27;;;4.20;99.90;;;;;;4990356;28;20030;-72
2021/03/07 03:03:40;;;;;;;1.63;1.23;;;4.20;99.90;;;;;;4992054;28;20046;-72
2021/03/07 03:06:08;;;;;;;3.40;1.42;;;4.20;99.90;;;;;;4988981;28;20034;-72
2021/03/07 03:08:35;;;;;;;3.17;1.23;;;4.30;99.90;;;;;;4990303;28;20488;-72
2021/03/07 03:11:02;;;;;;;1.13;1.00;;;4.30;99.90;;;;;;4977123;28;20042;-72
2021/03/07 03:13:29;;;;;;;7.05;1.33;;;4.20;99.90;;;;;;4987426;28;20500;-72
2021/03/07 03:15:59;;;;;;;2.47;1.27;;;4.20;99.90;;;;;;4987382;28;20022;-72
2021/03/07 03:18:28;;;;;;;2.13;1.40;;;4.20;99.90;;;;;;4997732;28;20027;-72
2021/03/07 03:20:56;;;;;;;2.47;1.08;;;4.30;99.90;;;;;;4991069;28;20053;-72
2021/03/07 03:23:23;;;;;;;3.38;1.42;;;4.20;99.90;;;;;;4988870;28;20030;-72
2021/03/07 03:25:50;;;;;;;4.10;1.02;;;4.20;99.90;;;;;;4988849;28;20030;-72
2021/03/07 03:28:16;;;;;;;1.73;1.10;;;4.20;99.90;;;;;;4988807;28;20030;-72
2021/03/07 03:30:42;;;;;;;3.08;0.98;;;4.20;99.90;;;;;;4986557;28;20054;-72
2021/03/07 03:33:08;;;;;;;1.67;0.85;;;4.20;99.90;;;;;;4989952;28;20119;-71
2021/03/07 03:35:33;;;;;;;1.83;1.05;;;4.20;99.90;;;;;;4995721;28;20441;-72
2021/03/07 03:37:58;;;;;;;4.43;1.10;;;4.20;99.90;;;;;;4992648;28;20026;-72
2021/03/07 03:40:27;;;;;;;6.05;1.30;;;4.20;99.90;;;;;;4993808;28;20030;-72
2021/03/07 03:43:05;;;;;;;2.78;1.23;;;4.10;99.90;;;;;;5000525;28;20038;-72
2021/03/07 03:45:33;;;;;;;5.05;1.40;;;4.10;99.90;;;;;;4991771;28;20026;-71
2021/03/07 03:48:02;;;;;;;3.78;1.60;;;4.10;99.90;;;;;;4990104;28;20060;-72
2021/03/07 03:50:30;;;;;;;4.53;1.48;;;4.00;99.90;;;;;;4994026;28;20160;-72
2021/03/07 03:53:00;;;;;;;2.03;1.50;;;4.00;99.90;;;;;;4996476;28;20558;-72
2021/03/07 03:55:28;;;;;;;2.63;1.35;;;4.00;99.90;;;;;;4998094;28;20190;-72
2021/03/07 03:58:02;;;;;;;4.20;1.30;;;4.00;99.90;;;;;;5001281;28;20026;-72
2021/03/07 04:00:30;;;;;;;2.17;1.40;;;4.00;99.90;;;;;;4991243;28;20034;-72
2021/03/07 04:02:58;;;;;;;1.90;1.10;;;4.00;99.90;;;;;;4997344;28;20034;-72
2021/03/07 04:05:26;;;;;;;3.30;1.48;;;4.00;99.90;;;;;;4990654;28;20408;-72
2021/03/07 04:07:52;;;;;;;5.95;1.42;;;3.90;99.90;;;;;;4995008;28;20038;-72
2021/03/07 04:10:19;;;;;;;4.47;2.03;;;3.90;99.90;;;;;;4992059;28;20038;-72
2021/03/07 04:12:47;;;;;;;4.00;1.70;;;3.90;99.90;;;;;;4996034;28;20032;-72
2021/03/07 04:15:15;;;;;;;6.28;1.30;;;3.90;99.90;;;;;;4990625;28;20500;-72
2021/03/07 04:17:41;;;;;;;3.20;1.35;;;3.80;99.90;;;;;;4990185;28;20507;-73
2021/03/07 04:20:07;;;;;;;3.08;1.60;;;3.90;99.90;;;;;;4991779;28;20673;-72
2021/03/07 04:22:33;;;;;;;4.45;1.77;;;3.90;99.90;;;;;;4994778;28;20096;-72
2021/03/07 04:24:59;;;;;;;2.72;1.30;;;3.90;99.90;;;;;;4999090;28;20615;-73
2021/03/07 04:27:25;;;;;;;3.72;1.77;;;3.80;99.90;;;;;;4995306;28;20226;-72
2021/03/07 04:29:51;;;;;;;6.43;2.10;;;3.80;99.90;;;;;;4991968;28;20564;-72
2021/03/07 04:32:18;;;;;;;7.30;1.70;;;3.80;99.90;;;;;;4993325;28;20026;-72
2021/03/07 04:34:44;;;;;;;5.43;1.70;;;3.90;99.90;;;;;;4991420;28;20026;-72
2021/03/07 04:37:11;;;;;;;2.45;1.48;;;3.80;99.90;;;;;;4993942;28;20026;-72
2021/03/07 04:39:36;;;;;;;2.85;1.50;;;3.80;99.90;;;;;;4991418;28;20026;-72
2021/03/07 04:42:04;;;;;;;2.95;1.70;;;3.80;99.90;;;;;;4994293;28;20098;-72
2021/03/07 04:44:29;;;;;;;6.05;2.05;;;3.80;99.90;;;;;;4991863;28;20034;-72
2021/03/07 04:46:55;;;;;;;4.78;1.73;;;3.80;99.90;;;;;;4992027;28;20080;-72
2021/03/07 04:49:21;;;;;;;1.95;1.50;;;3.90;99.90;;;;;;4991013;28;20034;-72
2021/03/07 04:51:46;;;;;;;6.25;1.90;;;3.80;99.90;;;;;;4989789;28;20458;-71
2021/03/07 04:54:11;;;;;;;2.90;1.65;;;3.80;99.90;;;;;;4991115;28;20051;-71
2021/03/07 04:56:37;;;;;;;2.60;1.42;;;3.80;99.90;;;;;;4990047;28;20030;-72
2021/03/07 04:59:03;;;;;;;3.00;1.55;;;3.80;99.90;;;;;;4997483;28;20381;-72
2021/03/07 05:01:28;;;;;;;4.10;1.58;;;3.80;99.90;;;;;;4994751;28;20033;-71
2021/03/07 05:03:53;;;;;;;4.93;1.98;;;3.80;99.90;;;;;;5002507;28;20125;-72
2021/03/07 05:06:26;;;;;;;5.93;1.98;;;3.70;99.90;;;;;;4999901;28;20037;-72
2021/03/07 05:08:52;;;;;;;3.28;1.40;;;3.80;99.90;;;;;;4996814;28;20029;-72
2021/03/07 05:11:21;;;;;;;5.32;1.77;;;3.80;99.90;;;;;;4995114;28;20026;-72
2021/03/07 05:13:47;;;;;;;2.22;1.55;;;3.80;99.90;;;;;;4989752;28;20080;-72
2021/03/07 05:16:13;;;;;;;3.13;1.77;;;3.90;99.90;;;;;;4991598;28;20122;-72
2021/03/07 05:18:38;;;;;;;3.60;1.80;;;3.90;99.90;;;;;;4991828;28;20021;-71
2021/03/07 05:21:04;;;;;;;3.72;1.50;;;3.80;99.90;;;;;;4995223;28;20034;-72
2021/03/07 05:23:29;;;;;;;3.90;2.10;;;3.80;99.90;;;;;;4991311;28;20041;-72
2021/03/07 05:25:57;;;;;;;4.10;1.80;;;3.70;99.90;;;;;;4997362;28;20023;-72
2021/03/07 05:28:22;;;;;;;3.03;1.67;;;3.80;99.90;;;;;;4989362;28;20041;-72
2021/03/07 05:30:48;;;;;;;4.55;1.92;;;3.70;99.90;;;;;;4990213;28;20034;-72
2021/03/07 05:33:16;;;;;;;9.10;1.70;;;3.70;99.90;;;;;;4995351;28;20548;-72
2021/03/07 05:35:42;;;;;;;4.18;1.85;;;3.70;99.90;;;;;;4999271;28;20058;-72
2021/03/07 05:38:07;;;;;;;10.32;1.90;;;3.80;99.90;;;;;;4996031;28;20030;-72
2021/03/07 05:40:35;;;;;;;1.90;1.38;;;3.80;99.90;;;;;;5004315;28;20049;-73
2021/03/07 05:43:03;;;;;;;7.70;2.22;;;3.80;99.90;;;;;;4988863;28;20485;-71
2021/03/07 05:45:28;;;;;;;2.50;1.70;;;3.80;99.90;;;;;;4987832;28;20065;-73
2021/03/07 05:47:54;;;;;;;3.63;1.67;;;3.80;99.60;;;;;;5001509;28;20026;-71
2021/03/07 05:50:20;;;;;;;3.25;2.03;;;3.70;99.70;;;;;;4994796;28;20484;-73
2021/03/07 05:52:47;;;;;;;10.00;1.80;;;3.80;99.80;;;;;;4989370;28;20039;-73
2021/03/07 05:55:13;;;;;;;4.32;2.17;;;3.70;99.30;;;;;;4994774;28;20037;-71
2021/03/07 05:57:41;;;;;;;3.63;1.65;;;3.70;99.30;;;;;;4990591;28;20096;-71
2021/03/07 06:00:07;;;;;;;4.72;1.73;;;3.70;99.50;;;;;;4988124;28;20121;-71
2021/03/07 06:02:33;;;;;;;4.93;1.65;;;3.80;99.40;;;;;;4991121;28;20041;-71
2021/03/07 06:04:58;;;;;;;3.35;1.67;;;3.70;99.30;;;;;;4991839;28;20026;-71
2021/03/07 06:07:24;;;;;;;4.28;1.70;;;3.70;99.10;;;;;;4992042;28;20031;-71
2021/03/07 06:10:13;;;;;;;4.97;1.80;;;3.80;99.00;;;;;;4989529;28;20086;-71
2021/03/07 06:12:40;;;;;;;4.13;1.65;;;3.80;98.80;;;;;;4989313;28;20034;-71
2021/03/07 06:15:06;;;;;;;5.72;1.75;;;3.90;98.50;;;;;;4989093;28;20033;-71
2021/03/07 06:17:43;;;;;;;5.30;1.80;;;3.80;98.60;;;;;;4989005;28;20078;-71
2021/03/07 06:20:11;;;;;;;6.80;1.95;;;3.90;98.70;;;;;;4993518;28;20523;-72
2021/03/07 06:22:37;;;;;;;5.40;1.88;;;3.90;98.60;;;;;;4989002;28;20043;-72
2021/03/07 06:25:11;;;;;;;3.25;1.85;;;4.00;98.20;;;;;;4994528;28;20054;-71
2021/03/07 06:27:36;;;;;;;4.28;1.50;;;4.00;98.20;;;;;;4990182;28;20026;-72
2021/03/07 06:30:05;;;;;;;6.22;1.88;;;4.00;98.00;;;;;;4994137;28;20056;-71
2021/03/07 06:32:36;;;;;;;2.97;1.73;;;4.00;97.70;;;;;;4989870;28;20033;-72
2021/03/07 06:35:04;;;;;;;2.08;1.35;;;4.00;97.30;;;;;;4992819;28;20269;-71
2021/03/07 06:37:29;;;;;;;4.22;1.50;;;4.00;97.50;;;;;;4989045;28;20445;-72
2021/03/07 06:39:54;;;;;;;3.17;1.52;;;4.00;97.20;;;;;;4992130;28;20029;-71
2021/03/07 06:42:21;;;;;;;2.40;1.45;;;4.00;97.10;;;;;;4987727;28;20097;-72
2021/03/07 06:45:01;;;;;;;2.10;1.30;;;4.00;97.10;;;;;;4987945;28;20484;-71
2021/03/07 06:47:28;;;;;;;3.03;2.15;;;4.00;96.70;;;;;;4981443;28;20496;-72
2021/03/07 06:50:10;;;;;;;3.85;1.60;;;4.00;96.90;;;;;;4989473;28;20103;-72
2021/03/07 06:52:52;;;;;;;4.93;1.70;;;4.00;96.90;;;;;;4989454;28;20054;-71
2021/03/07 06:55:20;;;;;;;1.92;1.40;;;4.00;96.70;;;;;;4990198;28;20026;-71
2021/03/07 06:57:46;;;;;;;10.05;1.80;;;4.00;96.60;;;;;;4989365;28;20066;-71
2021/03/07 07:00:13;;;;;;;6.18;1.70;;;4.00;95.80;;;;;;4988369;28;20630;-71
2021/03/07 07:02:38;;;;;;;1.63;1.20;;;4.00;95.90;;;;;;4983262;28;20042;-71
2021/03/07 07:05:04;;;;;;;3.25;1.80;;;4.00;95.60;;;;;;4978864;28;20038;-72
2021/03/07 07:07:30;;;;;;;3.15;1.67;;;4.10;95.20;;;;;;4988145;28;20694;-72
2021/03/07 07:10:06;;;;;;;3.40;1.50;;;4.20;95.10;;;;;;4988899;28;20070;-72
2021/03/07 07:12:32;;;;;;;1.90;1.20;;;4.20;94.50;;;;;;4989238;28;20031;-71
2021/03/07 07:15:11;;;;;;;2.22;1.50;;;4.10;94.30;;;;;;4988057;28;20026;-72
2021/03/07 07:17:37;;;;;;;5.18;1.52;;;4.10;94.10;;;;;;4987336;28;20058;-71
2021/03/07 07:20:12;;;;;;;4.18;1.52;;;4.10;94.40;;;;;;4989465;28;20554;-71
2021/03/07 07:22:37;;;;;;;2.03;1.30;;;4.10;94.20;;;;;;4987167;28;20041;-71
2021/03/07 07:25:07;;;;;;;5.70;1.60;;;4.20;94.10;;;;;;4989334;28;20030;-71
2021/03/07 07:27:34;;;;;;;2.10;1.38;;;4.30;93.80;;;;;;4994723;28;20030;-71
2021/03/07 07:29:59;;;;;;;4.43;1.45;;;4.30;93.30;;;;;;4989214;28;20042;-73
2021/03/07 07:32:39;;;;;;;2.67;1.48;;;4.30;92.90;;;;;;4986127;28;20025;-71
2021/03/07 07:35:27;;;;;;;1.90;1.27;;;4.30;92.90;;;;;;4990270;28;20030;-71
2021/03/07 07:38:01;;;;;;;3.17;1.50;;;4.30;93.10;;;;;;4987328;28;20480;-71
2021/03/07 07:40:43;;;;;;;4.15;1.85;;;4.40;92.90;;;;;;4987725;28;20440;-69
2021/03/07 07:43:10;;;;;;;2.25;1.45;;;4.40;92.90;;;;;;4978696;28;20034;-70
2021/03/07 07:45:36;;;;;;;5.45;1.20;;;4.40;92.60;;;;;;4984096;28;20511;-71
2021/03/07 07:48:05;;;;;;;4.35;1.85;;;4.50;92.60;;;;;;4988859;28;20038;-70
2021/03/07 07:50:37;;;;;;;2.92;1.35;;;4.50;92.30;;;;;;4988521;28;20136;-71
2021/03/07 07:53:06;;;;;;;;;;;4.60;92.40;;;;;;4989278;28;20046;-71
2021/03/07 07:55:43;;;;;;;6.75;1.30;;;4.60;91.90;;;;;;4989484;28;20455;-74
2021/03/07 07:58:09;;;;;;;1.58;1.20;;;4.60;91.50;;;;;;4988509;28;20082;-71
2021/03/07 08:00:49;;;;;;;2.00;1.50;;;4.60;91.80;;;;;;4988269;28;20590;-71
2021/03/07 08:03:32;;;;;;;3.47;1.85;;;4.60;91.60;;;;;;4984466;28;20034;-71
2021/03/07 08:05:59;;;;;;;2.78;1.33;;;4.60;91.30;;;;;;4986758;28;20110;-70
2021/03/07 08:08:36;;;;;;;6.93;1.58;;;4.60;91.50;;;;;;4990848;28;20511;-71
2021/03/07 08:11:07;;;;;;;2.22;1.48;;;4.60;91.30;;;;;;4986839;28;20068;-71
2021/03/07 08:13:33;;;;;;;3.70;1.65;;;4.60;91.50;;;;;;4984342;28;20049;-72
2021/03/07 08:16:00;;;;;;;4.40;1.60;;;4.70;91.60;;;;;;4985809;28;20034;-71
2021/03/07 08:18:44;;;;;;;2.58;1.40;;;4.70;91.30;;;;;;4986753;28;20023;-71
2021/03/07 08:21:10;;;;;;;3.60;1.38;;;4.60;90.90;;;;;;4992309;28;20060;-72
2021/03/07 08:24:20;;;;;;;1.55;1.30;;;4.60;90.90;;;;;;4993641;28;20481;-71
2021/03/07 08:26:46;;;;;;;5.70;1.30;;;4.60;91.10;;;;;;4978006;28;20125;-72
2021/03/07 08:29:36;;;;;;;5.07;1.58;;;4.60;91.30;;;;;;4995414;28;20475;-71
2021/03/07 08:32:36;;;;;;;6.65;1.45;;;4.60;91.30;;;;;;4991220;28;20050;-71
2021/03/07 08:35:14;;;;;;;1.77;1.40;;;4.70;90.80;;;;;;4989362;28;20489;-68
2021/03/07 08:37:40;;;;;;;6.38;1.40;;;4.70;90.60;;;;;;4998841;28;20471;-71
2021/03/07 08:40:25;;;;;;;2.50;1.58;;;4.70;90.70;;;;;;5003725;28;20029;-74
2021/03/07 08:42:51;;;;;;;3.45;1.42;;;4.70;90.70;;;;;;4990187;28;20113;-74
2021/03/07 08:45:18;;;;;;;2.92;1.48;;;4.70;90.60;;;;;;4991223;28;20130;-72
2021/03/07 08:47:55;;;;;;;2.88;1.60;;;4.70;90.80;;;;;;4974573;28;20050;-72
2021/03/07 08:50:21;;;;;;;2.17;1.30;;;4.80;90.60;;;;;;4990303;28;20030;-74
2021/03/07 08:52:48;;;;;;;5.13;1.50;;;4.80;90.50;;;;;;4992107;28;20042;-72
2021/03/07 08:55:14;;;;;;;1.98;1.40;;;4.80;90.50;;;;;;4998437;28;20023;-73
2021/03/07 08:57:49;;;;;;;4.93;1.40;;;4.70;90.60;;;;;;4991229;28;20503;-73
2021/03/07 09:00:18;;;;;;;2.47;1.48;;;4.70;91.00;;;;;;4992467;28;20030;-73
2021/03/07 09:02:45;;;;;;;2.67;1.70;;;4.80;90.80;;;;;;4990696;28;20365;-72
2021/03/07 09:05:30;;;;;;;3.65;2.13;;;4.80;91.00;;;;;;4991074;28;20049;-71
2021/03/07 09:08:03;;;;;;;4.28;1.40;;;4.80;90.60;;;;;;4990277;28;20019;-72
2021/03/07 09:10:49;;;;;;;1.85;1.60;;;4.90;90.80;;;;;;4991397;28;20039;-72
2021/03/07 09:13:18;;;;;;;4.47;2.03;;;4.90;90.40;;;;;;4988824;28;20042;-72
2021/03/07 09:15:55;;;;;;;2.35;1.65;;;4.90;90.50;;;;;;4988659;28;20377;-72
2021/03/07 09:18:23;;;;;;;2.25;1.73;;;4.80;90.60;;;;;;4987857;28;20035;-72
2021/03/07 09:20:51;;;;;;;8.05;1.83;;;4.90;90.50;;;;;;4990894;28;20121;-73
2021/03/07 09:23:31;;;;;;;2.65;1.70;;;4.90;90.60;;;;;;4989095;28;20700;-74
2021/03/07 09:26:01;;;;;;;2.72;1.83;;;4.90;90.80;;;;;;4990771;28;20033;-73
2021/03/07 09:28:47;;;;;;;3.67;2.17;;;4.90;90.70;;;;;;4993300;28;20022;-73
2021/03/07 09:31:18;;;;;;;3.15;1.63;;;4.90;90.60;;;;;;4989922;28;20113;-74
2021/03/07 09:33:51;;;;;;;5.78;2.35;;;5.00;90.40;;;;;;4990890;28;20050;-72
2021/03/07 09:36:18;;;;;;;4.22;1.70;;;4.90;90.60;;;;;;4990001;28;20473;-76
2021/03/07 09:38:48;;;;;;;3.92;2.00;;;5.00;90.70;;;;;;4988614;28;20019;-73
2021/03/07 09:41:15;;;;;;;2.85;2.00;;;4.90;90.60;;;;;;4990487;28;20041;-73
2021/03/07 09:43:44;;;;;;;2.30;1.55;;;5.00;90.70;;;;;;4996095;28;20033;-72
2021/03/07 09:46:10;;;;;;;2.45;1.65;;;5.10;90.60;;;;;;4989900;28;20058;-74
2021/03/07 09:48:37;;;;;;;6.30;1.90;;;5.00;90.70;;;;;;4988539;28;20116;-72
2021/03/07 09:51:05;;;;;;;4.07;2.22;;;5.00;91.00;;;;;;4989051;28;20033;-71
2021/03/07 09:53:35;;;;;;;2.42;1.88;;;5.00;90.80;;;;;;4989814;28;20046;-73
2021/03/07 09:56:00;;;;;;;3.55;2.10;;;5.10;90.70;;;;;;4990651;28;20026;-71
2021/03/07 09:58:38;;;;;;;5.35;2.30;;;5.10;90.60;;;;;;4997383;28;20472;-72
2021/03/07 10:01:05;;;;;;;9.70;2.75;;;5.00;90.80;;;;;;4979782;28;20034;-71
2021/03/07 10:03:33;;;;;;;2.78;1.85;;;4.90;91.00;;;;;;4988940;28;20030;-71
2021/03/07 10:06:05;;;;;;;4.13;2.33;;;4.80;91.40;;;;;;4989919;28;20381;-72
2021/03/07 10:08:32;;;;;;;7.40;2.47;;;4.80;91.50;;;;;;4988763;28;20706;-71
2021/03/07 10:11:22;;;;;;;3.72;2.35;;;4.70;91.60;;;;;;4991008;28;20026;-72
2021/03/07 10:14:02;;;;;;;6.38;2.80;;;4.70;91.50;;;;;;4989121;28;20117;-71
2021/03/07 10:16:30;;;;;;;3.00;2.00;;;4.80;91.90;;;;;;4991333;28;20053;-72
2021/03/07 10:19:12;;;;;;;3.72;2.22;;;4.90;91.90;;;;;;4993409;28;20109;-72
2021/03/07 10:21:38;;;;;;;8.40;2.55;;;4.90;91.90;;;;;;4989940;28;20037;-72
2021/03/07 10:24:09;;;;;;;4.40;2.47;;;5.00;91.80;;;;;;4993419;28;20038;-72
2021/03/07 10:26:36;;;;;;;10.00;2.78;;;5.00;91.70;;;;;;4972770;28;20440;-72
2021/03/07 10:29:22;;;;;;;5.15;2.58;;;4.90;91.20;;;;;;4991868;28;20095;-72
2021/03/07 10:32:13;;;;;;;5.65;2.55;;;4.90;91.10;;;;;;4990487;28;20101;-73
2021/03/07 10:34:47;;;;;;;9.60;2.67;;;4.90;91.20;;;;;;4988146;28;20034;-71
2021/03/07 10:37:37;;;;;;;7.47;2.95;;;5.00;91.20;;;;;;4988994;28;20042;-71
2021/03/07 10:40:08;;;;;;;5.18;2.58;;;5.00;91.20;;;;;;4985281;28;20038;-71
2021/03/07 10:42:36;;;;;;;3.55;2.42;;;5.10;90.90;;;;;;4994096;28;20480;-71
2021/03/07 10:45:12;;;;;;;4.53;2.25;;;5.10;90.60;;;;;;4984161;28;20088;-71
2021/03/07 10:47:38;;;;;;;4.75;2.42;;;5.10;90.50;;;;;;4986490;28;20122;-71
2021/03/07 10:50:04;;;;;;;5.75;2.97;;;5.10;90.20;;;;;;4990610;28;20113;-71
2021/03/07 10:52:30;;;;;;;5.65;2.65;;;5.10;90.40;;;;;;4990283;28;20077;-72
2021/03/07 10:54:55;;;;;;;7.68;2.90;;;5.10;90.60;;;;;;4992867;28;20101;-72
2021/03/07 10:57:21;;;;;;;5.93;2.33;;;5.00;90.60;;;;;;4991992;28;20026;-72
2021/03/07 10:59:51;;;;;;;3.40;1.92;;;5.10;90.80;;;;;;4988981;28;20030;-72
2021/03/07 11:02:18;;;;;;;7.28;3.05;;;5.10;90.60;;;;;;4992606;28;20121;-72
2021/03/07 11:04:45;;;;;;;5.47;3.05;;;5.20;90.70;;;;;;4988406;28;20026;-70
2021/03/07 11:07:11;;;;;;;8.00;2.70;;;5.20;90.40;;;;;;4998864;28;20169;-72
2021/03/07 11:09:37;;;;;;;5.25;3.13;;;5.20;90.70;;;;;;4980862;28;20034;-72
2021/03/07 11:12:03;;;;;;;6.40;2.40;;;5.40;90.20;;;;;;4990151;28;20042;-72
2021/03/07 11:14:28;;;;;;;4.97;2.83;;;5.40;89.70;;;;;;4984616;28;20019;-72
2021/03/07 11:16:54;;;;;;;6.72;2.78;;;5.20;89.70;;;;;;4983882;28;20033;-72
2021/03/07 11:19:19;;;;;;;3.90;2.63;;;5.20;89.70;;;;;;4993897;28;20032;-72
2021/03/07 11:21:45;;;;;;;5.18;2.85;;;5.20;90.20;;;;;;4997680;28;20284;-73
2021/03/07 11:24:11;;;;;;;3.50;2.78;;;5.20;90.40;;;;;;4993022;28;20030;-71
2021/03/07 11:26:36;;;;;;;6.35;2.70;;;5.20;90.70;;;;;;4986818;28;20370;-71
2021/03/07 11:29:03;;;;;;;7.50;2.72;;;5.30;90.40;;;;;;4988362;28;20034;-71
2021/03/07 11:31:28;;;;;;;4.10;2.50;;;5.20;90.80;;;;;;4987865;28;20536;-72
2021/03/07 11:33:54;;;;;;;9.63;2.50;;;5.30;90.50;;;;;;4990748;28;20172;-73
2021/03/07 11:36:19;;;;;;;10.57;3.28;;;5.40;90.50;;;;;;4996885;28;20105;-73
2021/03/07 11:38:45;;;;;;;5.95;2.80;;;5.40;90.50;;;;;;4996908;28;20018;-70
2021/03/07 11:41:10;;;;;;;9.18;3.50;;;5.50;90.60;;;;;;4989673;28;20026;-73
2021/03/07 11:43:35;;;;;;;6.32;2.70;;;5.40;90.40;;;;;;4989947;28;20029;-73
2021/03/07 11:46:01;;;;;;;9.60;3.08;;;5.40;90.20;;;;;;4993043;28;20506;-73
2021/03/07 11:48:28;;;;;;;10.98;2.67;;;5.50;89.80;;;;;;4987018;28;20033;-74
2021/03/07 11:50:53;;;;;;;5.40;2.90;;;5.40;89.90;;;;;;4987883;28;20029;-74
2021/03/07 11:53:19;;;;;;;5.53;2.92;;;5.40;89.90;;;;;;4989821;28;20133;-73
2021/03/07 11:55:44;;;;;;;8.45;3.25;;;5.40;90.10;;;;;;4988727;28;20504;-74
2021/03/07 11:58:10;;;;;;;7.68;2.75;;;5.50;89.80;;;;;;5005995;28;20036;-73
2021/03/07 12:00:35;;;;;;;7.95;3.42;;;5.50;89.40;;;;;;4994115;28;20451;-73
2021/03/07 12:03:00;;;;;;;6.28;3.15;;;5.40;90.00;;;;;;5002121;28;20040;-74
2021/03/07 12:05:26;;;;;;;11.10;3.08;;;5.30;90.30;;;;;;5002487;28;20116;-73
2021/03/07 12:07:51;;;;;;;6.45;3.13;;;5.30;90.10;;;;;;4990279;28;20052;-72
2021/03/07 12:10:19;;;;;;;11.95;3.28;;;5.20;90.00;;;;;;4991913;28;20041;-73
2021/03/07 12:12:44;;;;;;;5.43;2.80;;;5.30;89.90;;;;;;4998276;28;20018;-73
2021/03/07 12:15:10;;;;;;;8.93;3.25;;;5.20;90.00;;;;;;4983298;28;20022;-73
2021/03/07 12:17:36;;;;;;;10.05;3.00;;;5.20;90.00;;;;;;4995407;28;20034;-73
2021/03/07 12:20:04;;;;;;;6.10;3.45;;;5.30;90.40;;;;;;4993761;28;20528;-73
2021/03/07 12:22:29;;;;;;;5.82;3.17;;;5.20;90.50;;;;;;4997764;28;20393;-73
2021/03/07 12:24:55;;;;;;;4.80;2.75;;;5.20;90.50;;;;;;4994540;28;20018;-71
2021/03/07 12:27:20;;;;;;;6.80;3.00;;;5.20;90.50;;;;;;4997805;28;20026;-71
2021/03/07 12:29:47;;;;;;;8.07;3.00;;;5.30;90.80;;;;;;4993524;28;20037;-72
2021/03/07 12:32:13;;;;;;;8.27;3.38;;;5.40;90.50;;;;;;4991940;28;20040;-71
2021/03/07 12:34:39;;;;;;;6.88;2.75;;;5.40;90.00;;;;;;4991783;28;20026;-72
2021/03/07 12:37:04;;;;;;;5.38;2.88;;;5.40;89.00;;;;;;4992753;28;20428;-74
2021/03/07 12:39:29;;;;;;;3.47;2.33;;;5.30;89.50;;;;;;4991649;28;20030;-73
2021/03/07 12:41:55;;;;;;;5.10;2.75;;;5.20;90.00;;;;;;4989505;28;20087;-73
2021/03/07 12:44:21;;;;;;;6.03;2.63;;;5.30;90.20;;;;;;4990400;28;20026;-73
2021/03/07 12:46:48;;;;;;;6.30;2.70;;;5.20;89.70;;;;;;4992152;28;20045;-74
2021/03/07 12:49:13;;;;;;;5.07;2.67;;;5.20;89.80;;;;;;4993929;28;20036;-74
2021/03/07 12:51:38;;;;;;;4.50;2.75;;;5.20;90.00;;;;;;4992547;28;20923;-74
2021/03/07 12:54:04;;;;;;;5.63;2.80;;;5.20;89.60;;;;;;4993534;28;20073;-72
2021/03/07 12:56:30;;;;;;;8.73;2.80;;;5.30;89.50;;;;;;4993968;28;20022;-74
2021/03/07 12:58:56;;;;;;;7.95;2.53;;;5.20;89.30;;;;;;4985424;28;20040;-73
2021/03/07 13:01:22;;;;;;;6.20;3.15;;;5.30;89.10;;;;;;4988924;28;20022;-71
2021/03/07 13:03:50;;;;;;;4.38;2.40;;;5.50;88.80;;;;;;4985309;28;20307;-71
2021/03/07 13:06:15;;;;;;;4.15;2.70;;;5.50;88.30;;;;;;4997529;28;20036;-71